sensor_id;sensor_type;location;lat;lon;timestamp;temperature;humidity
59881;DHT22;45751;51.380;10.326;2024-02-16T00:00:24;9.60;99.90
59881;DHT22;45751;51.380;10.326;2024-02-16T00:02:50;9.60;99.90
59881;DHT22;45751;51.380;10.326;2024-02-16T00:05:16;9.60;99.90
59881;DHT22;45751;51.380;10.326;2024-02-16T00:07:42;9.60;99.90
59881;DHT22;45751;51.380;10.326;2024-02-16T00:10:09;9.70;99.90
59881;DHT22;45751;51.380;10.326;2024-02-16T00:12:35;9.70;99.90
59881;DHT22;45751;51.380;10.326;2024-02-16T00:15:03;9.70;99.90
59881;DHT22;45751;51.380;10.326;2024-02-16T00:17:28;9.70;99.90
59881;DHT22;45751;51.380;10.326;2024-02-16T00:19:55;9.80;99.90
59881;DHT22;45751;51.380;10.326;2024-02-16T00:22:21;9.90;99.90
59881;DHT22;45751;51.380;10.326;2024-02-16T00:24:47;9.80;99.90
59881;DHT22;45751;51.380;10.326;2024-02-16T00:27:16;9.90;99.90
59881;DHT22;45751;51.380;10.326;2024-02-16T00:29:43;9.80;99.90
59881;DHT22;45751;51.380;10.326;2024-02-16T00:32:09;9.90;99.90
59881;DHT22;45751;51.380;10.326;2024-02-16T00:34:35;9.90;99.90
59881;DHT22;45751;51.380;10.326;2024-02-16T00:37:02;9.90;99.90
59881;DHT22;45751;51.380;10.326;2024-02-16T00:39:29;9.90;99.90
59881;DHT22;45751;51.380;10.326;2024-02-16T00:41:55;9.90;99.90
59881;DHT22;45751;51.380;10.326;2024-02-16T00:44:20;9.90;99.90
59881;DHT22;45751;51.380;10.326;2024-02-16T00:46:46;9.90;99.90
59881;DHT22;45751;51.380;10.326;2024-02-16T00:49:12;9.90;99.90
59881;DHT22;45751;51.380;10.326;2024-02-16T00:51:39;9.90;99.90
59881;DHT22;45751;51.380;10.326;2024-02-16T00:54:04;9.90;99.90
59881;DHT22;45751;51.380;10.326;2024-02-16T00:56:33;9.90;99.90
59881;DHT22;45751;51.380;10.326;2024-02-16T00:58:59;9.90;99.90
59881;DHT22;45751;51.380;10.326;2024-02-16T01:01:25;9.90;99.90
59881;DHT22;45751;51.380;10.326;2024-02-16T01:03:52;9.90;99.90
59881;DHT22;45751;51.380;10.326;2024-02-16T01:06:19;9.90;99.90
59881;DHT22;45751;51.380;10.326;2024-02-16T01:08:44;9.90;99.90
59881;DHT22;45751;51.380;10.326;2024-02-16T01:11:10;9.90;99.90
59881;DHT22;45751;51.380;10.326;2024-02-16T01:13:37;9.90;99.90
59881;DHT22;45751;51.380;10.326;2024-02-16T01:16:03;9.90;99.90
59881;DHT22;45751;51.380;10.326;2024-02-16T01:18:29;9.90;99.90
59881;DHT22;45751;51.380;10.326;2024-02-16T01:20:56;9.90;99.90
59881;DHT22;45751;51.380;10.326;2024-02-16T01:23:22;9.90;99.90
59881;DHT22;45751;51.380;10.326;2024-02-16T01:25:47;9.90;99.90
59881;DHT22;45751;51.380;10.326;2024-02-16T01:28:14;9.90;99.90
59881;DHT22;45751;51.380;10.326;2024-02-16T01:30:40;9.90;99.90
59881;DHT22;45751;51.380;10.326;2024-02-16T01:33:06;9.90;99.90
59881;DHT22;45751;51.380;10.326;2024-02-16T01:35:33;9.90;99.90
59881;DHT22;45751;51.380;10.326;2024-02-16T01:37:59;9.90;99.90
59881;DHT22;45751;51.380;10.326;2024-02-16T01:40:25;9.90;99.90
59881;DHT22;45751;51.380;10.326;2024-02-16T01:42:52;9.80;99.90
59881;DHT22;45751;51.380;10.326;2024-02-16T01:45:21;9.80;99.90
59881;DHT22;45751;51.380;10.326;2024-02-16T01:47:51;9.80;99.90
59881;DHT22;45751;51.380;10.326;2024-02-16T01:50:18;9.80;99.90
59881;DHT22;45751;51.380;10.326;2024-02-16T01:52:45;9.80;99.90
59881;DHT22;45751;51.380;10.326;2024-02-16T01:55:12;9.80;99.90
59881;DHT22;45751;51.380;10.326;2024-02-16T01:57:39;9.80;99.90
59881;DHT22;45751;51.380;10.326;2024-02-16T02:00:06;9.80;99.90
59881;DHT22;45751;51.380;10.326;2024-02-16T02:02:37;9.80;99.90
59881;DHT22;45751;51.380;10.326;2024-02-16T02:05:03;9.80;99.90
59881;DHT22;45751;51.380;10.326;2024-02-16T02:07:30;9.80;99.90
59881;DHT22;45751;51.380;10.326;2024-02-16T02:09:56;9.70;99.90
59881;DHT22;45751;51.380;10.326;2024-02-16T02:12:23;9.70;99.90
59881;DHT22;45751;51.380;10.326;2024-02-16T02:14:50;9.70;99.90
59881;DHT22;45751;51.380;10.326;2024-02-16T02:17:16;9.70;99.90
59881;DHT22;45751;51.380;10.326;2024-02-16T02:19:42;9.70;99.90
59881;DHT22;45751;51.380;10.326;2024-02-16T02:22:14;9.70;99.90
59881;DHT22;45751;51.380;10.326;2024-02-16T02:24:41;9.70;99.90
59881;DHT22;45751;51.380;10.326;2024-02-16T02:27:07;9.70;99.90
59881;DHT22;45751;51.380;10.326;2024-02-16T02:29:32;9.60;99.90
59881;DHT22;45751;51.380;10.326;2024-02-16T02:31:59;9.60;99.90
59881;DHT22;45751;51.380;10.326;2024-02-16T02:34:25;9.60;99.90
59881;DHT22;45751;51.380;10.326;2024-02-16T02:36:51;9.60;99.90
59881;DHT22;45751;51.380;10.326;2024-02-16T02:39:17;9.60;99.90
59881;DHT22;45751;51.380;10.326;2024-02-16T02:41:42;9.60;99.90
59881;DHT22;45751;51.380;10.326;2024-02-16T02:44:09;9.50;99.90
59881;DHT22;45751;51.380;10.326;2024-02-16T02:46:35;9.50;99.90
59881;DHT22;45751;51.380;10.326;2024-02-16T02:49:01;9.40;99.90
59881;DHT22;45751;51.380;10.326;2024-02-16T02:51:27;9.50;99.90
59881;DHT22;45751;51.380;10.326;2024-02-16T02:53:53;9.50;99.90
59881;DHT22;45751;51.380;10.326;2024-02-16T02:56:19;9.60;99.90
59881;DHT22;45751;51.380;10.326;2024-02-16T02:58:44;9.60;99.90
59881;DHT22;45751;51.380;10.326;2024-02-16T03:01:11;9.50;99.90
59881;DHT22;45751;51.380;10.326;2024-02-16T03:03:39;9.60;99.90
59881;DHT22;45751;51.380;10.326;2024-02-16T03:06:06;9.60;99.90
59881;DHT22;45751;51.380;10.326;2024-02-16T03:08:31;9.60;99.90
59881;DHT22;45751;51.380;10.326;2024-02-16T03:10:57;9.70;99.90
59881;DHT22;45751;51.380;10.326;2024-02-16T03:13:26;9.60;99.90
59881;DHT22;45751;51.380;10.326;2024-02-16T03:15:52;9.60;99.90
59881;DHT22;45751;51.380;10.326;2024-02-16T03:18:19;9.60;99.90
59881;DHT22;45751;51.380;10.326;2024-02-16T03:20:45;9.60;99.90
59881;DHT22;45751;51.380;10.326;2024-02-16T03:23:11;9.60;99.90
59881;DHT22;45751;51.380;10.326;2024-02-16T03:25:37;9.60;99.90
59881;DHT22;45751;51.380;10.326;2024-02-16T03:28:03;9.60;99.90
59881;DHT22;45751;51.380;10.326;2024-02-16T03:30:28;9.70;99.90
59881;DHT22;45751;51.380;10.326;2024-02-16T03:32:54;9.60;99.90
59881;DHT22;45751;51.380;10.326;2024-02-16T03:35:20;9.70;99.90
59881;DHT22;45751;51.380;10.326;2024-02-16T03:37:46;9.60;99.90
59881;DHT22;45751;51.380;10.326;2024-02-16T03:40:13;9.70;99.90
59881;DHT22;45751;51.380;10.326;2024-02-16T03:42:39;9.70;99.90
59881;DHT22;45751;51.380;10.326;2024-02-16T03:45:07;9.70;99.90
59881;DHT22;45751;51.380;10.326;2024-02-16T03:47:33;9.60;99.90
59881;DHT22;45751;51.380;10.326;2024-02-16T03:49:58;9.60;99.90
59881;DHT22;45751;51.380;10.326;2024-02-16T03:52:24;9.70;99.90
59881;DHT22;45751;51.380;10.326;2024-02-16T03:54:50;9.60;99.90
59881;DHT22;45751;51.380;10.326;2024-02-16T03:57:17;9.70;99.90
59881;DHT22;45751;51.380;10.326;2024-02-16T03:59:46;9.70;99.90
59881;DHT22;45751;51.380;10.326;2024-02-16T04:02:12;9.70;99.90
59881;DHT22;45751;51.380;10.326;2024-02-16T04:04:41;9.70;99.90
59881;DHT22;45751;51.380;10.326;2024-02-16T04:07:07;9.70;99.90
59881;DHT22;45751;51.380;10.326;2024-02-16T04:09:34;9.70;99.90
59881;DHT22;45751;51.380;10.326;2024-02-16T04:12:03;9.60;99.90
59881;DHT22;45751;51.380;10.326;2024-02-16T04:14:30;9.70;99.90
59881;DHT22;45751;51.380;10.326;2024-02-16T04:16:59;9.70;99.90
59881;DHT22;45751;51.380;10.326;2024-02-16T04:19:29;9.70;99.90
59881;DHT22;45751;51.380;10.326;2024-02-16T04:21:55;9.70;99.90
59881;DHT22;45751;51.380;10.326;2024-02-16T04:24:21;9.70;99.90
59881;DHT22;45751;51.380;10.326;2024-02-16T04:26:46;9.60;99.90
59881;DHT22;45751;51.380;10.326;2024-02-16T04:29:12;9.70;99.90
59881;DHT22;45751;51.380;10.326;2024-02-16T04:31:39;9.60;99.90
59881;DHT22;45751;51.380;10.326;2024-02-16T04:34:06;9.70;99.90
59881;DHT22;45751;51.380;10.326;2024-02-16T04:36:31;9.70;99.90
59881;DHT22;45751;51.380;10.326;2024-02-16T04:38:57;9.70;99.90
59881;DHT22;45751;51.380;10.326;2024-02-16T04:41:23;9.70;99.90
59881;DHT22;45751;51.380;10.326;2024-02-16T04:43:48;9.70;99.90
59881;DHT22;45751;51.380;10.326;2024-02-16T04:46:18;9.70;99.90
59881;DHT22;45751;51.380;10.326;2024-02-16T04:48:44;9.70;99.90
59881;DHT22;45751;51.380;10.326;2024-02-16T04:51:10;9.70;99.90
59881;DHT22;45751;51.380;10.326;2024-02-16T04:53:36;9.70;99.90
59881;DHT22;45751;51.380;10.326;2024-02-16T04:56:02;9.70;99.90
59881;DHT22;45751;51.380;10.326;2024-02-16T04:58:28;9.70;99.90
59881;DHT22;45751;51.380;10.326;2024-02-16T05:00:54;9.70;99.90
59881;DHT22;45751;51.380;10.326;2024-02-16T05:03:20;9.70;99.90
59881;DHT22;45751;51.380;10.326;2024-02-16T05:05:46;9.70;99.90
59881;DHT22;45751;51.380;10.326;2024-02-16T05:08:12;9.70;99.90
59881;DHT22;45751;51.380;10.326;2024-02-16T05:10:38;9.80;99.90
59881;DHT22;45751;51.380;10.326;2024-02-16T05:13:04;9.70;99.90
59881;DHT22;45751;51.380;10.326;2024-02-16T05:15:30;9.70;99.90
59881;DHT22;45751;51.380;10.326;2024-02-16T05:17:57;9.70;99.90
59881;DHT22;45751;51.380;10.326;2024-02-16T05:20:23;9.70;99.90
59881;DHT22;45751;51.380;10.326;2024-02-16T05:22:49;9.70;99.90
59881;DHT22;45751;51.380;10.326;2024-02-16T05:25:18;9.70;99.90
59881;DHT22;45751;51.380;10.326;2024-02-16T05:27:45;9.70;99.90
59881;DHT22;45751;51.380;10.326;2024-02-16T05:30:12;9.60;99.90
59881;DHT22;45751;51.380;10.326;2024-02-16T05:32:40;9.70;99.90
59881;DHT22;45751;51.380;10.326;2024-02-16T05:35:07;9.60;99.90
59881;DHT22;45751;51.380;10.326;2024-02-16T05:37:48;9.70;99.90
59881;DHT22;45751;51.380;10.326;2024-02-16T05:40:15;9.70;99.90
59881;DHT22;45751;51.380;10.326;2024-02-16T05:42:53;9.70;99.90
59881;DHT22;45751;51.380;10.326;2024-02-16T05:45:20;9.70;99.90
59881;DHT22;45751;51.380;10.326;2024-02-16T05:47:49;9.70;99.90
59881;DHT22;45751;51.380;10.326;2024-02-16T05:50:16;9.70;99.90
59881;DHT22;45751;51.380;10.326;2024-02-16T05:52:43;9.70;99.90
59881;DHT22;45751;51.380;10.326;2024-02-16T05:55:10;9.80;99.90
59881;DHT22;45751;51.380;10.326;2024-02-16T05:57:37;9.80;99.90
59881;DHT22;45751;51.380;10.326;2024-02-16T06:00:04;9.70;99.90
59881;DHT22;45751;51.380;10.326;2024-02-16T06:02:32;9.80;99.90
59881;DHT22;45751;51.380;10.326;2024-02-16T06:04:58;9.80;99.90
59881;DHT22;45751;51.380;10.326;2024-02-16T06:07:24;9.80;99.90
59881;DHT22;45751;51.380;10.326;2024-02-16T06:09:50;9.70;99.90
59881;DHT22;45751;51.380;10.326;2024-02-16T06:12:15;9.80;99.90
59881;DHT22;45751;51.380;10.326;2024-02-16T06:14:42;9.80;99.90
59881;DHT22;45751;51.380;10.326;2024-02-16T06:17:08;9.80;99.90
59881;DHT22;45751;51.380;10.326;2024-02-16T06:19:35;9.80;99.90
59881;DHT22;45751;51.380;10.326;2024-02-16T06:22:00;9.90;99.90
59881;DHT22;45751;51.380;10.326;2024-02-16T06:24:26;9.80;99.90
59881;DHT22;45751;51.380;10.326;2024-02-16T06:26:53;9.80;99.90
59881;DHT22;45751;51.380;10.326;2024-02-16T06:29:19;9.80;99.90
59881;DHT22;45751;51.380;10.326;2024-02-16T06:31:48;9.80;99.90
59881;DHT22;45751;51.380;10.326;2024-02-16T06:34:15;9.80;99.90
59881;DHT22;45751;51.380;10.326;2024-02-16T06:36:42;9.90;99.90
59881;DHT22;45751;51.380;10.326;2024-02-16T06:39:08;10.00;99.90
59881;DHT22;45751;51.380;10.326;2024-02-16T06:41:35;9.80;99.90
59881;DHT22;45751;51.380;10.326;2024-02-16T06:44:00;9.90;99.90
59881;DHT22;45751;51.380;10.326;2024-02-16T06:46:26;9.90;99.90
59881;DHT22;45751;51.380;10.326;2024-02-16T06:48:54;9.90;99.90
59881;DHT22;45751;51.380;10.326;2024-02-16T06:51:25;9.80;99.90
59881;DHT22;45751;51.380;10.326;2024-02-16T06:53:52;9.90;99.90
59881;DHT22;45751;51.380;10.326;2024-02-16T06:56:18;10.00;99.90
59881;DHT22;45751;51.380;10.326;2024-02-16T06:58:44;10.00;99.90
59881;DHT22;45751;51.380;10.326;2024-02-16T07:01:12;10.00;99.90
59881;DHT22;45751;51.380;10.326;2024-02-16T07:03:38;10.10;99.90
59881;DHT22;45751;51.380;10.326;2024-02-16T07:06:04;10.10;99.90
59881;DHT22;45751;51.380;10.326;2024-02-16T07:08:33;10.10;99.90
59881;DHT22;45751;51.380;10.326;2024-02-16T07:10:59;10.10;99.90
59881;DHT22;45751;51.380;10.326;2024-02-16T07:13:24;10.20;99.90
59881;DHT22;45751;51.380;10.326;2024-02-16T07:15:50;10.20;99.90
59881;DHT22;45751;51.380;10.326;2024-02-16T07:18:16;10.20;99.90
59881;DHT22;45751;51.380;10.326;2024-02-16T07:20:42;10.20;99.90
59881;DHT22;45751;51.380;10.326;2024-02-16T07:23:08;10.20;99.90
59881;DHT22;45751;51.380;10.326;2024-02-16T07:25:35;10.30;99.90
59881;DHT22;45751;51.380;10.326;2024-02-16T07:28:01;10.30;99.90
59881;DHT22;45751;51.380;10.326;2024-02-16T07:30:27;10.30;99.90
59881;DHT22;45751;51.380;10.326;2024-02-16T07:32:53;10.30;99.90
59881;DHT22;45751;51.380;10.326;2024-02-16T07:35:19;10.30;99.90
59881;DHT22;45751;51.380;10.326;2024-02-16T07:37:45;10.30;99.90
59881;DHT22;45751;51.380;10.326;2024-02-16T07:40:10;10.30;99.90
59881;DHT22;45751;51.380;10.326;2024-02-16T07:42:39;10.30;99.90
59881;DHT22;45751;51.380;10.326;2024-02-16T07:45:06;10.30;99.90
59881;DHT22;45751;51.380;10.326;2024-02-16T07:47:32;10.30;99.90
59881;DHT22;45751;51.380;10.326;2024-02-16T07:49:58;10.30;99.90
59881;DHT22;45751;51.380;10.326;2024-02-16T07:52:24;10.30;99.90
59881;DHT22;45751;51.380;10.326;2024-02-16T07:54:49;10.30;99.90
59881;DHT22;45751;51.380;10.326;2024-02-16T07:57:17;10.30;99.90
59881;DHT22;45751;51.380;10.326;2024-02-16T07:59:43;10.30;99.90
59881;DHT22;45751;51.380;10.326;2024-02-16T08:02:09;10.40;99.90
59881;DHT22;45751;51.380;10.326;2024-02-16T08:04:49;10.30;99.90
59881;DHT22;45751;51.380;10.326;2024-02-16T08:07:16;10.40;99.90
59881;DHT22;45751;51.380;10.326;2024-02-16T08:09:46;10.40;99.90
59881;DHT22;45751;51.380;10.326;2024-02-16T08:12:15;10.40;99.90
59881;DHT22;45751;51.380;10.326;2024-02-16T08:14:41;10.50;99.90
59881;DHT22;45751;51.380;10.326;2024-02-16T08:17:08;10.50;99.90
59881;DHT22;45751;51.380;10.326;2024-02-16T08:19:35;10.50;99.90
59881;DHT22;45751;51.380;10.326;2024-02-16T08:22:02;10.50;99.90
59881;DHT22;45751;51.380;10.326;2024-02-16T08:24:33;10.50;99.90
59881;DHT22;45751;51.380;10.326;2024-02-16T08:26:59;10.50;99.90
59881;DHT22;45751;51.380;10.326;2024-02-16T08:29:25;10.50;99.90
59881;DHT22;45751;51.380;10.326;2024-02-16T08:31:54;10.50;99.90
59881;DHT22;45751;51.380;10.326;2024-02-16T08:34:20;10.50;99.90
59881;DHT22;45751;51.380;10.326;2024-02-16T08:36:47;10.50;99.90
59881;DHT22;45751;51.380;10.326;2024-02-16T08:39:14;10.50;99.90
59881;DHT22;45751;51.380;10.326;2024-02-16T08:41:40;10.60;99.90
59881;DHT22;45751;51.380;10.326;2024-02-16T08:44:07;10.60;99.90
59881;DHT22;45751;51.380;10.326;2024-02-16T08:46:38;10.70;99.90
59881;DHT22;45751;51.380;10.326;2024-02-16T08:49:04;10.70;99.90
59881;DHT22;45751;51.380;10.326;2024-02-16T08:51:32;10.70;99.90
59881;DHT22;45751;51.380;10.326;2024-02-16T08:53:58;10.70;99.90
59881;DHT22;45751;51.380;10.326;2024-02-16T08:56:24;10.80;99.90
59881;DHT22;45751;51.380;10.326;2024-02-16T08:58:50;10.80;99.90
59881;DHT22;45751;51.380;10.326;2024-02-16T09:01:16;10.80;99.90
59881;DHT22;45751;51.380;10.326;2024-02-16T09:03:43;10.80;99.90
59881;DHT22;45751;51.380;10.326;2024-02-16T09:06:08;10.80;99.90
59881;DHT22;45751;51.380;10.326;2024-02-16T09:08:34;10.90;99.90
59881;DHT22;45751;51.380;10.326;2024-02-16T09:11:05;10.90;99.90
59881;DHT22;45751;51.380;10.326;2024-02-16T09:13:49;10.90;99.90
59881;DHT22;45751;51.380;10.326;2024-02-16T09:16:14;10.90;99.90
59881;DHT22;45751;51.380;10.326;2024-02-16T09:18:40;10.90;99.90
59881;DHT22;45751;51.380;10.326;2024-02-16T09:21:07;10.90;99.90
59881;DHT22;45751;51.380;10.326;2024-02-16T09:23:33;10.90;99.90
59881;DHT22;45751;51.380;10.326;2024-02-16T09:26:00;10.90;99.90
59881;DHT22;45751;51.380;10.326;2024-02-16T09:28:29;10.90;99.90
59881;DHT22;45751;51.380;10.326;2024-02-16T09:30:55;10.90;99.90
59881;DHT22;45751;51.380;10.326;2024-02-16T09:33:22;11.00;99.90
59881;DHT22;45751;51.380;10.326;2024-02-16T09:35:48;11.00;99.90
59881;DHT22;45751;51.380;10.326;2024-02-16T09:38:14;11.00;99.90
59881;DHT22;45751;51.380;10.326;2024-02-16T09:40:40;11.00;99.90
59881;DHT22;45751;51.380;10.326;2024-02-16T09:43:06;11.10;99.90
59881;DHT22;45751;51.380;10.326;2024-02-16T09:45:33;11.10;99.90
59881;DHT22;45751;51.380;10.326;2024-02-16T09:47:59;11.20;99.90
59881;DHT22;45751;51.380;10.326;2024-02-16T09:50:25;11.20;99.90
59881;DHT22;45751;51.380;10.326;2024-02-16T09:52:54;11.30;99.90
59881;DHT22;45751;51.380;10.326;2024-02-16T09:55:21;11.30;99.90
59881;DHT22;45751;51.380;10.326;2024-02-16T09:57:58;11.40;99.90
59881;DHT22;45751;51.380;10.326;2024-02-16T10:00:25;11.50;99.90
59881;DHT22;45751;51.380;10.326;2024-02-16T10:02:51;11.50;99.90
59881;DHT22;45751;51.380;10.326;2024-02-16T10:05:20;11.50;99.90
59881;DHT22;45751;51.380;10.326;2024-02-16T10:07:47;11.60;99.90
59881;DHT22;45751;51.380;10.326;2024-02-16T10:10:22;11.60;99.90
59881;DHT22;45751;51.380;10.326;2024-02-16T10:12:48;11.60;99.90
59881;DHT22;45751;51.380;10.326;2024-02-16T10:15:20;11.60;99.90
59881;DHT22;45751;51.380;10.326;2024-02-16T10:18:18;11.60;99.90
59881;DHT22;45751;51.380;10.326;2024-02-16T10:20:45;11.70;99.90
59881;DHT22;45751;51.380;10.326;2024-02-16T10:23:11;11.60;99.90
59881;DHT22;45751;51.380;10.326;2024-02-16T10:25:39;11.70;99.90
59881;DHT22;45751;51.380;10.326;2024-02-16T10:28:09;11.70;99.90
59881;DHT22;45751;51.380;10.326;2024-02-16T10:30:38;11.70;99.90
59881;DHT22;45751;51.380;10.326;2024-02-16T10:33:08;11.70;99.90
59881;DHT22;45751;51.380;10.326;2024-02-16T10:35:35;11.70;99.90
59881;DHT22;45751;51.380;10.326;2024-02-16T10:38:02;11.70;99.90
59881;DHT22;45751;51.380;10.326;2024-02-16T10:40:38;11.70;99.90
59881;DHT22;45751;51.380;10.326;2024-02-16T10:43:05;11.80;99.90
59881;DHT22;45751;51.380;10.326;2024-02-16T10:45:35;11.80;99.90
59881;DHT22;45751;51.380;10.326;2024-02-16T10:48:05;11.80;99.90
59881;DHT22;45751;51.380;10.326;2024-02-16T10:50:34;11.80;99.90
59881;DHT22;45751;51.380;10.326;2024-02-16T10:53:23;11.80;99.90
59881;DHT22;45751;51.380;10.326;2024-02-16T10:55:50;11.90;99.90
59881;DHT22;45751;51.380;10.326;2024-02-16T10:58:18;11.90;99.90
59881;DHT22;45751;51.380;10.326;2024-02-16T11:03:17;12.00;99.90
59881;DHT22;45751;51.380;10.326;2024-02-16T11:05:43;12.00;99.90
59881;DHT22;45751;51.380;10.326;2024-02-16T11:08:16;12.10;99.90
59881;DHT22;45751;51.380;10.326;2024-02-16T11:13:25;12.10;99.90
59881;DHT22;45751;51.380;10.326;2024-02-16T11:18:32;12.20;99.90
59881;DHT22;45751;51.380;10.326;2024-02-16T11:21:01;12.20;99.90
59881;DHT22;45751;51.380;10.326;2024-02-16T11:23:29;12.30;99.90
59881;DHT22;45751;51.380;10.326;2024-02-16T11:26:03;12.30;99.90
59881;DHT22;45751;51.380;10.326;2024-02-16T11:28:34;12.30;99.90
59881;DHT22;45751;51.380;10.326;2024-02-16T11:31:00;12.30;99.90
59881;DHT22;45751;51.380;10.326;2024-02-16T11:33:26;12.40;99.90
59881;DHT22;45751;51.380;10.326;2024-02-16T11:35:55;12.40;99.90
59881;DHT22;45751;51.380;10.326;2024-02-16T11:38:21;12.50;99.90
59881;DHT22;45751;51.380;10.326;2024-02-16T11:40:58;12.50;99.90
59881;DHT22;45751;51.380;10.326;2024-02-16T11:43:25;12.50;99.90
59881;DHT22;45751;51.380;10.326;2024-02-16T11:45:51;12.50;99.90
59881;DHT22;45751;51.380;10.326;2024-02-16T11:48:21;12.60;99.90
59881;DHT22;45751;51.380;10.326;2024-02-16T11:50:48;12.60;99.90
59881;DHT22;45751;51.380;10.326;2024-02-16T11:53:18;12.70;99.90
59881;DHT22;45751;51.380;10.326;2024-02-16T11:55:48;12.70;99.90
59881;DHT22;45751;51.380;10.326;2024-02-16T11:58:17;12.80;99.90
59881;DHT22;45751;51.380;10.326;2024-02-16T12:00:47;12.80;99.90
59881;DHT22;45751;51.380;10.326;2024-02-16T12:03:23;12.90;99.90
59881;DHT22;45751;51.380;10.326;2024-02-16T12:05:54;12.90;99.90
59881;DHT22;45751;51.380;10.326;2024-02-16T12:08:20;13.00;99.90
59881;DHT22;45751;51.380;10.326;2024-02-16T12:10:51;13.00;99.90
59881;DHT22;45751;51.380;10.326;2024-02-16T12:13:20;13.10;99.90
59881;DHT22;45751;51.380;10.326;2024-02-16T12:15:49;13.10;99.80
59881;DHT22;45751;51.380;10.326;2024-02-16T12:18:22;13.10;99.30
59881;DHT22;45751;51.380;10.326;2024-02-16T12:21:00;13.20;99.30
59881;DHT22;45751;51.380;10.326;2024-02-16T12:23:27;13.20;99.10
59881;DHT22;45751;51.380;10.326;2024-02-16T12:25:53;13.10;98.90
59881;DHT22;45751;51.380;10.326;2024-02-16T12:28:21;13.20;98.90
59881;DHT22;45751;51.380;10.326;2024-02-16T12:30:47;13.30;99.00
59881;DHT22;45751;51.380;10.326;2024-02-16T12:33:14;13.20;98.60
59881;DHT22;45751;51.380;10.326;2024-02-16T12:35:40;13.30;98.40
59881;DHT22;45751;51.380;10.326;2024-02-16T12:38:11;13.30;98.30
59881;DHT22;45751;51.380;10.326;2024-02-16T12:40:37;13.30;98.20
59881;DHT22;45751;51.380;10.326;2024-02-16T12:43:02;13.30;98.20
59881;DHT22;45751;51.380;10.326;2024-02-16T12:45:28;13.30;98.20
59881;DHT22;45751;51.380;10.326;2024-02-16T12:47:54;13.40;98.30
59881;DHT22;45751;51.380;10.326;2024-02-16T12:50:19;13.40;98.10
59881;DHT22;45751;51.380;10.326;2024-02-16T12:52:45;13.40;97.90
59881;DHT22;45751;51.380;10.326;2024-02-16T12:55:11;13.30;98.00
59881;DHT22;45751;51.380;10.326;2024-02-16T12:57:37;13.50;97.80
59881;DHT22;45751;51.380;10.326;2024-02-16T13:00:04;13.50;97.80
59881;DHT22;45751;51.380;10.326;2024-02-16T13:02:30;13.60;97.70
59881;DHT22;45751;51.380;10.326;2024-02-16T13:04:56;13.60;97.50
59881;DHT22;45751;51.380;10.326;2024-02-16T13:07:23;13.50;97.60
59881;DHT22;45751;51.380;10.326;2024-02-16T13:09:49;13.70;97.50
59881;DHT22;45751;51.380;10.326;2024-02-16T13:12:19;13.80;97.50
59881;DHT22;45751;51.380;10.326;2024-02-16T13:14:48;13.90;97.30
59881;DHT22;45751;51.380;10.326;2024-02-16T13:17:13;13.90;96.90
59881;DHT22;45751;51.380;10.326;2024-02-16T13:19:39;13.90;96.60
59881;DHT22;45751;51.380;10.326;2024-02-16T13:22:05;14.00;96.50
59881;DHT22;45751;51.380;10.326;2024-02-16T13:24:31;14.00;96.30
59881;DHT22;45751;51.380;10.326;2024-02-16T13:26:56;14.20;95.70
59881;DHT22;45751;51.380;10.326;2024-02-16T13:29:22;14.30;95.20
59881;DHT22;45751;51.380;10.326;2024-02-16T13:31:51;14.30;95.00
59881;DHT22;45751;51.380;10.326;2024-02-16T13:34:16;14.40;94.90
59881;DHT22;45751;51.380;10.326;2024-02-16T13:36:42;14.40;94.70
59881;DHT22;45751;51.380;10.326;2024-02-16T13:39:08;14.40;94.90
59881;DHT22;45751;51.380;10.326;2024-02-16T13:41:33;14.40;94.80
59881;DHT22;45751;51.380;10.326;2024-02-16T13:43:59;14.40;94.90
59881;DHT22;45751;51.380;10.326;2024-02-16T13:46:25;14.40;94.80
59881;DHT22;45751;51.380;10.326;2024-02-16T13:48:51;14.50;94.50
59881;DHT22;45751;51.380;10.326;2024-02-16T13:51:17;14.60;94.50
59881;DHT22;45751;51.380;10.326;2024-02-16T13:53:43;14.70;94.00
59881;DHT22;45751;51.380;10.326;2024-02-16T13:56:08;14.70;93.70
59881;DHT22;45751;51.380;10.326;2024-02-16T13:58:34;14.80;93.50
59881;DHT22;45751;51.380;10.326;2024-02-16T14:01:00;14.80;93.50
59881;DHT22;45751;51.380;10.326;2024-02-16T14:03:28;14.90;93.30
59881;DHT22;45751;51.380;10.326;2024-02-16T14:05:54;15.00;93.30
59881;DHT22;45751;51.380;10.326;2024-02-16T14:08:20;15.00;93.10
59881;DHT22;45751;51.380;10.326;2024-02-16T14:10:46;15.10;92.50
59881;DHT22;45751;51.380;10.326;2024-02-16T14:13:11;15.20;92.30
59881;DHT22;45751;51.380;10.326;2024-02-16T14:15:37;15.20;92.50
59881;DHT22;45751;51.380;10.326;2024-02-16T14:18:03;15.20;92.40
59881;DHT22;45751;51.380;10.326;2024-02-16T14:20:29;15.30;92.30
59881;DHT22;45751;51.380;10.326;2024-02-16T14:22:55;15.30;92.00
59881;DHT22;45751;51.380;10.326;2024-02-16T14:25:22;15.40;91.90
59881;DHT22;45751;51.380;10.326;2024-02-16T14:27:49;15.40;91.60
59881;DHT22;45751;51.380;10.326;2024-02-16T14:30:15;15.40;91.60
59881;DHT22;45751;51.380;10.326;2024-02-16T14:32:41;15.40;91.30
59881;DHT22;45751;51.380;10.326;2024-02-16T14:35:07;15.40;91.50
59881;DHT22;45751;51.380;10.326;2024-02-16T14:37:33;15.40;91.30
59881;DHT22;45751;51.380;10.326;2024-02-16T14:39:59;15.40;91.50
59881;DHT22;45751;51.380;10.326;2024-02-16T14:42:26;15.30;91.50
59881;DHT22;45751;51.380;10.326;2024-02-16T14:44:52;15.20;91.70
59881;DHT22;45751;51.380;10.326;2024-02-16T14:47:18;15.10;92.10
59881;DHT22;45751;51.380;10.326;2024-02-16T14:49:44;15.10;92.50
59881;DHT22;45751;51.380;10.326;2024-02-16T14:52:09;15.30;92.70
59881;DHT22;45751;51.380;10.326;2024-02-16T14:54:36;15.00;92.60
59881;DHT22;45751;51.380;10.326;2024-02-16T14:57:01;14.90;92.60
59881;DHT22;45751;51.380;10.326;2024-02-16T14:59:28;14.80;92.80
59881;DHT22;45751;51.380;10.326;2024-02-16T15:01:55;14.80;93.20
59881;DHT22;45751;51.380;10.326;2024-02-16T15:04:22;14.80;93.60
59881;DHT22;45751;51.380;10.326;2024-02-16T15:06:47;14.70;94.20
59881;DHT22;45751;51.380;10.326;2024-02-16T15:09:13;14.60;94.40
59881;DHT22;45751;51.380;10.326;2024-02-16T15:11:39;14.60;94.70
59881;DHT22;45751;51.380;10.326;2024-02-16T15:14:05;14.50;95.60
59881;DHT22;45751;51.380;10.326;2024-02-16T15:16:31;14.50;96.30
59881;DHT22;45751;51.380;10.326;2024-02-16T15:18:57;14.40;97.20
59881;DHT22;45751;51.380;10.326;2024-02-16T15:21:23;14.40;98.10
59881;DHT22;45751;51.380;10.326;2024-02-16T15:23:49;14.30;98.80
59881;DHT22;45751;51.380;10.326;2024-02-16T15:26:15;14.30;98.60
59881;DHT22;45751;51.380;10.326;2024-02-16T15:28:41;14.20;98.40